sensor_id;sensor_type;location;lat;lon;timestamp;pressure;altitude;pressure_sealevel;temperature;humidity
7480;BME280;3781;42.272;22.658;2023-06-10T00:02:25;94144.75;;;15.86;100.00
7480;BME280;3781;42.272;22.658;2023-06-10T00:04:52;94137.91;;;16.00;100.00
7480;BME280;3781;42.272;22.658;2023-06-10T00:07:19;94004.28;;;15.19;100.00
7480;BME280;3781;42.272;22.658;2023-06-10T00:09:46;94151.56;;;16.10;100.00
7480;BME280;3781;42.272;22.658;2023-06-10T00:12:14;93930.31;;;14.50;100.00
7480;BME280;3781;42.272;22.658;2023-06-10T00:14:42;94095.66;;;15.43;100.00
7480;BME280;3781;42.272;22.658;2023-06-10T00:17:09;94107.28;;;15.40;100.00
7480;BME280;3781;42.272;22.658;2023-06-10T00:19:36;94158.97;;;15.69;100.00
7480;BME280;3781;42.272;22.658;2023-06-10T00:22:06;94137.44;;;15.59;100.00
7480;BME280;3781;42.272;22.658;2023-06-10T00:24:34;94047.97;;;14.95;100.00
7480;BME280;3781;42.272;22.658;2023-06-10T00:27:01;94147.00;;;15.52;100.00
7480;BME280;3781;42.272;22.658;2023-06-10T00:29:30;94083.47;;;15.13;100.00
7480;BME280;3781;42.272;22.658;2023-06-10T00:31:56;93996.75;;;14.56;100.00
7480;BME280;3781;42.272;22.658;2023-06-10T00:34:23;93941.97;;;14.09;100.00
7480;BME280;3781;42.272;22.658;2023-06-10T00:36:50;94122.06;;;15.10;100.00
7480;BME280;3781;42.272;22.658;2023-06-10T00:39:17;94099.13;;;14.90;100.00
7480;BME280;3781;42.272;22.658;2023-06-10T00:41:44;93971.75;;;13.92;100.00
7480;BME280;3781;42.272;22.658;2023-06-10T00:44:11;93908.59;;;13.66;100.00
7480;BME280;3781;42.272;22.658;2023-06-10T00:46:39;93904.78;;;13.76;100.00
7480;BME280;3781;42.272;22.658;2023-06-10T00:49:06;93918.84;;;13.67;100.00
7480;BME280;3781;42.272;22.658;2023-06-10T00:51:33;94034.59;;;14.29;100.00
7480;BME280;3781;42.272;22.658;2023-06-10T00:54:01;94075.38;;;14.46;100.00
7480;BME280;3781;42.272;22.658;2023-06-10T00:56:29;94134.63;;;14.84;100.00
7480;BME280;3781;42.272;22.658;2023-06-10T00:58:56;93984.78;;;14.00;100.00
7480;BME280;3781;42.272;22.658;2023-06-10T01:01:24;94015.28;;;14.38;100.00
7480;BME280;3781;42.272;22.658;2023-06-10T01:03:52;93878.00;;;13.43;100.00
7480;BME280;3781;42.272;22.658;2023-06-10T01:06:26;94006.00;;;14.27;100.00
7480;BME280;3781;42.272;22.658;2023-06-10T01:09:00;93975.81;;;13.94;100.00
7480;BME280;3781;42.272;22.658;2023-06-10T01:11:34;94102.72;;;14.58;100.00
7480;BME280;3781;42.272;22.658;2023-06-10T01:14:03;94120.06;;;14.59;100.00
7480;BME280;3781;42.272;22.658;2023-06-10T01:16:33;94105.41;;;14.42;100.00
7480;BME280;3781;42.272;22.658;2023-06-10T01:19:02;94149.09;;;14.64;100.00
7480;BME280;3781;42.272;22.658;2023-06-10T01:21:31;94139.63;;;14.63;100.00
7480;BME280;3781;42.272;22.658;2023-06-10T01:23:58;93932.44;;;13.46;100.00
7480;BME280;3781;42.272;22.658;2023-06-10T01:26:29;94125.84;;;14.77;100.00
7480;BME280;3781;42.272;22.658;2023-06-10T01:28:59;93910.31;;;13.34;100.00
7480;BME280;3781;42.272;22.658;2023-06-10T01:31:33;93912.56;;;13.45;100.00
7480;BME280;3781;42.272;22.658;2023-06-10T01:34:07;94055.13;;;14.40;100.00
7480;BME280;3781;42.272;22.658;2023-06-10T01:36:38;93946.03;;;13.81;100.00
7480;BME280;3781;42.272;22.658;2023-06-10T01:39:21;94086.34;;;14.95;100.00
7480;BME280;3781;42.272;22.658;2023-06-10T01:41:49;93998.06;;;14.52;100.00
7480;BME280;3781;42.272;22.658;2023-06-10T01:44:18;94131.50;;;15.11;100.00
7480;BME280;3781;42.272;22.658;2023-06-10T01:46:45;94128.63;;;14.76;100.00
7480;BME280;3781;42.272;22.658;2023-06-10T01:49:13;93919.09;;;13.33;100.00
7480;BME280;3781;42.272;22.658;2023-06-10T01:51:41;94022.31;;;13.91;100.00
7480;BME280;3781;42.272;22.658;2023-06-10T01:54:12;93882.00;;;12.99;100.00
7480;BME280;3781;42.272;22.658;2023-06-10T01:56:40;93933.81;;;13.26;100.00
7480;BME280;3781;42.272;22.658;2023-06-10T01:59:08;93961.13;;;13.46;100.00
7480;BME280;3781;42.272;22.658;2023-06-10T02:01:39;93886.59;;;13.13;100.00
7480;BME280;3781;42.272;22.658;2023-06-10T02:04:05;94146.38;;;14.88;100.00
7480;BME280;3781;42.272;22.658;2023-06-10T02:06:33;94090.63;;;14.65;100.00
7480;BME280;3781;42.272;22.658;2023-06-10T02:09:12;94087.69;;;14.60;100.00
7480;BME280;3781;42.272;22.658;2023-06-10T02:11:41;94004.91;;;14.22;100.00
7480;BME280;3781;42.272;22.658;2023-06-10T02:14:08;94087.69;;;14.60;100.00
7480;BME280;3781;42.272;22.658;2023-06-10T02:16:35;94138.53;;;14.88;100.00
7480;BME280;3781;42.272;22.658;2023-06-10T02:19:02;94162.50;;;15.00;100.00
7480;BME280;3781;42.272;22.658;2023-06-10T02:21:32;94038.56;;;14.17;100.00
7480;BME280;3781;42.272;22.658;2023-06-10T02:23:59;94154.56;;;14.85;100.00
7480;BME280;3781;42.272;22.658;2023-06-10T02:26:27;94093.34;;;14.41;100.00
7480;BME280;3781;42.272;22.658;2023-06-10T02:28:55;93938.50;;;13.39;100.00
7480;BME280;3781;42.272;22.658;2023-06-10T02:31:22;93896.31;;;13.03;100.00
7480;BME280;3781;42.272;22.658;2023-06-10T02:33:50;94027.50;;;13.99;100.00
7480;BME280;3781;42.272;22.658;2023-06-10T02:36:17;93885.09;;;12.95;100.00
7480;BME280;3781;42.272;22.658;2023-06-10T02:38:44;94129.56;;;14.44;100.00
7480;BME280;3781;42.272;22.658;2023-06-10T02:41:11;94108.38;;;14.39;100.00
7480;BME280;3781;42.272;22.658;2023-06-10T02:43:39;94137.03;;;14.55;100.00
7480;BME280;3781;42.272;22.658;2023-06-10T02:46:06;94068.56;;;14.21;100.00
7480;BME280;3781;42.272;22.658;2023-06-10T02:48:40;93968.78;;;13.56;100.00
7480;BME280;3781;42.272;22.658;2023-06-10T02:51:08;94007.66;;;13.82;100.00
7480;BME280;3781;42.272;22.658;2023-06-10T02:53:35;94124.94;;;14.62;100.00
7480;BME280;3781;42.272;22.658;2023-06-10T02:56:03;94134.41;;;14.55;100.00
7480;BME280;3781;42.272;22.658;2023-06-10T02:58:30;94063.81;;;14.32;100.00
7480;BME280;3781;42.272;22.658;2023-06-10T03:00:58;93935.31;;;13.59;100.00
7480;BME280;3781;42.272;22.658;2023-06-10T03:03:25;93983.81;;;13.93;100.00
7480;BME280;3781;42.272;22.658;2023-06-10T03:05:53;94149.56;;;14.98;100.00
7480;BME280;3781;42.272;22.658;2023-06-10T03:08:20;93907.13;;;13.63;100.00
7480;BME280;3781;42.272;22.658;2023-06-10T03:10:47;93940.91;;;13.95;100.00
7480;BME280;3781;42.272;22.658;2023-06-10T03:13:15;93924.47;;;13.87;100.00
7480;BME280;3781;42.272;22.658;2023-06-10T03:15:42;93997.19;;;14.37;100.00
7480;BME280;3781;42.272;22.658;2023-06-10T03:18:11;94078.75;;;14.85;100.00
7480;BME280;3781;42.272;22.658;2023-06-10T03:20:38;94095.56;;;15.14;100.00
7480;BME280;3781;42.272;22.658;2023-06-10T03:23:05;93989.16;;;14.46;100.00
7480;BME280;3781;42.272;22.658;2023-06-10T03:25:32;94143.78;;;15.42;100.00
7480;BME280;3781;42.272;22.658;2023-06-10T03:27:59;94141.03;;;15.35;100.00
7480;BME280;3781;42.272;22.658;2023-06-10T03:30:27;93974.22;;;14.24;100.00
7480;BME280;3781;42.272;22.658;2023-06-10T03:33:02;94000.88;;;14.50;100.00
7480;BME280;3781;42.272;22.658;2023-06-10T03:35:30;93987.19;;;14.40;100.00
7480;BME280;3781;42.272;22.658;2023-06-10T03:37:58;94095.66;;;14.97;100.00
7480;BME280;3781;42.272;22.658;2023-06-10T03:40:24;93972.25;;;14.26;100.00
7480;BME280;3781;42.272;22.658;2023-06-10T03:42:51;93927.34;;;14.00;100.00
7480;BME280;3781;42.272;22.658;2023-06-10T03:45:18;93963.03;;;14.38;100.00
7480;BME280;3781;42.272;22.658;2023-06-10T03:47:48;93911.66;;;14.00;100.00
7480;BME280;3781;42.272;22.658;2023-06-10T03:50:15;94005.09;;;14.51;100.00
7480;BME280;3781;42.272;22.658;2023-06-10T03:52:44;94088.56;;;15.06;100.00
7480;BME280;3781;42.272;22.658;2023-06-10T03:55:11;94093.69;;;14.99;100.00
7480;BME280;3781;42.272;22.658;2023-06-10T03:57:38;94109.63;;;15.13;100.00
7480;BME280;3781;42.272;22.658;2023-06-10T04:00:06;94003.13;;;14.53;100.00
7480;BME280;3781;42.272;22.658;2023-06-10T04:02:36;93966.72;;;14.21;100.00
7480;BME280;3781;42.272;22.658;2023-06-10T04:05:07;93944.59;;;14.09;100.00
7480;BME280;3781;42.272;22.658;2023-06-10T04:07:34;94139.28;;;15.28;100.00
7480;BME280;3781;42.272;22.658;2023-06-10T04:10:02;93986.44;;;14.23;100.00
7480;BME280;3781;42.272;22.658;2023-06-10T04:12:30;93938.47;;;13.86;100.00
7480;BME280;3781;42.272;22.658;2023-06-10T04:14:57;94089.47;;;14.90;100.00
7480;BME280;3781;42.272;22.658;2023-06-10T04:17:23;93972.25;;;14.26;100.00
7480;BME280;3781;42.272;22.658;2023-06-10T04:19:50;94025.31;;;14.57;100.00
7480;BME280;3781;42.272;22.658;2023-06-10T04:22:17;94108.00;;;15.34;100.00
7480;BME280;3781;42.272;22.658;2023-06-10T04:24:44;94126.13;;;15.36;100.00
7480;BME280;3781;42.272;22.658;2023-06-10T04:27:12;93922.09;;;14.00;100.00
7480;BME280;3781;42.272;22.658;2023-06-10T04:29:39;93949.75;;;14.17;100.00
7480;BME280;3781;42.272;22.658;2023-06-10T04:32:07;94044.47;;;14.80;100.00
7480;BME280;3781;42.272;22.658;2023-06-10T04:34:34;94101.13;;;15.10;100.00
7480;BME280;3781;42.272;22.658;2023-06-10T04:37:01;94122.63;;;15.21;100.00
7480;BME280;3781;42.272;22.658;2023-06-10T05:07:54;94071.28;;;19.50;100.00
7480;BME280;3781;42.272;22.658;2023-06-10T05:10:21;94220.91;;;20.14;100.00
7480;BME280;3781;42.272;22.658;2023-06-10T05:12:48;94214.13;;;19.18;100.00
7480;BME280;3781;42.272;22.658;2023-06-10T05:15:15;94105.38;;;17.74;100.00
7480;BME280;3781;42.272;22.658;2023-06-10T05:17:42;94142.25;;;17.66;100.00
7480;BME280;3781;42.272;22.658;2023-06-10T05:20:09;94136.94;;;17.60;100.00
7480;BME280;3781;42.272;22.658;2023-06-10T05:22:36;94192.41;;;18.14;100.00
7480;BME280;3781;42.272;22.658;2023-06-10T05:25:06;94166.88;;;18.07;100.00
7480;BME280;3781;42.272;22.658;2023-06-10T05:27:33;94155.22;;;18.17;100.00
7480;BME280;3781;42.272;22.658;2023-06-10T05:29:59;94103.94;;;17.72;100.00
7480;BME280;3781;42.272;22.658;2023-06-10T05:32:26;94096.44;;;17.96;100.00
7480;BME280;3781;42.272;22.658;2023-06-10T05:34:55;94071.59;;;17.71;100.00
7480;BME280;3781;42.272;22.658;2023-06-10T05:37:22;94210.50;;;18.78;100.00
7480;BME280;3781;42.272;22.658;2023-06-10T05:39:50;94111.78;;;18.48;100.00
7480;BME280;3781;42.272;22.658;2023-06-10T05:42:19;94221.09;;;19.32;100.00
7480;BME280;3781;42.272;22.658;2023-06-10T05:44:46;94213.38;;;19.24;100.00
7480;BME280;3781;42.272;22.658;2023-06-10T05:47:15;94156.56;;;19.02;100.00
7480;BME280;3781;42.272;22.658;2023-06-10T05:49:42;94120.53;;;18.96;100.00
7480;BME280;3781;42.272;22.658;2023-06-10T05:52:11;94119.78;;;19.15;100.00
7480;BME280;3781;42.272;22.658;2023-06-10T05:54:38;94217.84;;;19.91;100.00
7480;BME280;3781;42.272;22.658;2023-06-10T05:57:05;94091.06;;;19.27;100.00
7480;BME280;3781;42.272;22.658;2023-06-10T05:59:33;94213.06;;;20.20;100.00
7480;BME280;3781;42.272;22.658;2023-06-10T06:02:00;94217.94;;;20.30;100.00
7480;BME280;3781;42.272;22.658;2023-06-10T06:04:27;94199.44;;;20.10;100.00
7480;BME280;3781;42.272;22.658;2023-06-10T06:06:56;94208.78;;;20.19;100.00
7480;BME280;3781;42.272;22.658;2023-06-10T06:09:23;94220.78;;;20.35;100.00
7480;BME280;3781;42.272;22.658;2023-06-10T06:11:50;94042.41;;;19.16;100.00
7480;BME280;3781;42.272;22.658;2023-06-10T06:14:17;94183.22;;;20.07;100.00
7480;BME280;3781;42.272;22.658;2023-06-10T06:16:45;94228.66;;;20.15;100.00
7480;BME280;3781;42.272;22.658;2023-06-10T06:19:12;94223.75;;;20.06;100.00
7480;BME280;3781;42.272;22.658;2023-06-10T06:21:39;94209.16;;;19.97;100.00
7480;BME280;3781;42.272;22.658;2023-06-10T06:24:07;94214.03;;;20.00;100.00
7480;BME280;3781;42.272;22.658;2023-06-10T06:26:33;94182.38;;;19.87;100.00
7480;BME280;3781;42.272;22.658;2023-06-10T06:29:00;94232.16;;;20.29;100.00
7480;BME280;3781;42.272;22.658;2023-06-10T06:31:27;94226.25;;;20.40;100.00
7480;BME280;3781;42.272;22.658;2023-06-10T06:33:55;94204.75;;;20.56;100.00
7480;BME280;3781;42.272;22.658;2023-06-10T06:36:22;94216.47;;;20.93;100.00
7480;BME280;3781;42.272;22.658;2023-06-10T06:38:49;94219.53;;;21.03;100.00
7480;BME280;3781;42.272;22.658;2023-06-10T06:41:16;94168.13;;;20.92;100.00
7480;BME280;3781;42.272;22.658;2023-06-10T06:43:43;94194.91;;;21.16;100.00
7480;BME280;3781;42.272;22.658;2023-06-10T06:46:10;94222.19;;;21.54;100.00
7480;BME280;3781;42.272;22.658;2023-06-10T06:48:37;94005.94;;;20.31;100.00
7480;BME280;3781;42.272;22.658;2023-06-10T06:51:05;94184.72;;;21.26;100.00
7480;BME280;3781;42.272;22.658;2023-06-10T06:53:35;94015.25;;;20.27;100.00
7480;BME280;3781;42.272;22.658;2023-06-10T06:56:10;94093.78;;;20.95;100.00
7480;BME280;3781;42.272;22.658;2023-06-10T06:58:41;94096.09;;;20.85;100.00
7480;BME280;3781;42.272;22.658;2023-06-10T07:01:07;94220.00;;;21.44;100.00
7480;BME280;3781;42.272;22.658;2023-06-10T07:03:34;94213.00;;;21.63;100.00
7480;BME280;3781;42.272;22.658;2023-06-10T07:06:03;94216.59;;;21.75;100.00
7480;BME280;3781;42.272;22.658;2023-06-10T07:08:34;94181.31;;;21.56;100.00
7480;BME280;3781;42.272;22.658;2023-06-10T07:11:01;94213.09;;;21.94;100.00
7480;BME280;3781;42.272;22.658;2023-06-10T07:13:29;94132.59;;;21.46;100.00
7480;BME280;3781;42.272;22.658;2023-06-10T07:15:56;94209.66;;;22.18;100.00
7480;BME280;3781;42.272;22.658;2023-06-10T07:18:22;94185.88;;;21.87;100.00
7480;BME280;3781;42.272;22.658;2023-06-10T07:20:50;94066.59;;;20.88;100.00
7480;BME280;3781;42.272;22.658;2023-06-10T07:23:17;94131.63;;;20.76;100.00
7480;BME280;3781;42.272;22.658;2023-06-10T07:25:46;94195.56;;;21.49;100.00
7480;BME280;3781;42.272;22.658;2023-06-10T07:28:13;94210.22;;;21.45;100.00
7480;BME280;3781;42.272;22.658;2023-06-10T07:30:44;94030.28;;;20.20;100.00
7480;BME280;3781;42.272;22.658;2023-06-10T07:33:11;94009.00;;;20.15;100.00
7480;BME280;3781;42.272;22.658;2023-06-10T07:35:38;94113.16;;;20.76;100.00
7480;BME280;3781;42.272;22.658;2023-06-10T07:38:05;94206.09;;;21.18;100.00
7480;BME280;3781;42.272;22.658;2023-06-10T07:40:32;94101.56;;;20.77;100.00
7480;BME280;3781;42.272;22.658;2023-06-10T07:43:00;94205.19;;;21.88;100.00
7480;BME280;3781;42.272;22.658;2023-06-10T07:45:27;94194.53;;;22.01;100.00
7480;BME280;3781;42.272;22.658;2023-06-10T07:47:54;94077.56;;;21.05;100.00
7480;BME280;3781;42.272;22.658;2023-06-10T07:50:21;94186.88;;;21.48;100.00
7480;BME280;3781;42.272;22.658;2023-06-10T07:52:48;94142.00;;;21.35;100.00
7480;BME280;3781;42.272;22.658;2023-06-10T07:55:15;94101.16;;;21.38;100.00
7480;BME280;3781;42.272;22.658;2023-06-10T07:57:42;94180.31;;;21.95;100.00
7480;BME280;3781;42.272;22.658;2023-06-10T08:00:11;94180.63;;;22.36;100.00
7480;BME280;3781;42.272;22.658;2023-06-10T08:02:38;94163.66;;;22.44;100.00
7480;BME280;3781;42.272;22.658;2023-06-10T08:05:05;94081.00;;;21.74;100.00
7480;BME280;3781;42.272;22.658;2023-06-10T08:07:35;94173.78;;;22.29;100.00
7480;BME280;3781;42.272;22.658;2023-06-10T08:10:02;94108.59;;;21.85;100.00
7480;BME280;3781;42.272;22.658;2023-06-10T08:12:29;94175.28;;;22.18;100.00
7480;BME280;3781;42.272;22.658;2023-06-10T08:14:56;94116.66;;;21.59;100.00
7480;BME280;3781;42.272;22.658;2023-06-10T08:17:25;94124.91;;;21.44;100.00
7480;BME280;3781;42.272;22.658;2023-06-10T08:19:51;94136.59;;;21.61;100.00
7480;BME280;3781;42.272;22.658;2023-06-10T08:22:18;94071.13;;;21.26;100.00
7480;BME280;3781;42.272;22.658;2023-06-10T08:24:45;94171.66;;;21.75;100.00
7480;BME280;3781;42.272;22.658;2023-06-10T08:27:12;94185.19;;;21.98;100.00
7480;BME280;3781;42.272;22.658;2023-06-10T08:29:39;94079.91;;;21.82;100.00
7480;BME280;3781;42.272;22.658;2023-06-10T08:32:07;94037.38;;;21.59;100.00
7480;BME280;3781;42.272;22.658;2023-06-10T08:34:35;94110.53;;;22.21;94.67
7480;BME280;3781;42.272;22.658;2023-06-10T08:37:02;94090.91;;;22.53;92.51
7480;BME280;3781;42.272;22.658;2023-06-10T08:39:29;94172.34;;;23.66;89.42
7480;BME280;3781;42.272;22.658;2023-06-10T08:42:03;94164.63;;;24.36;89.41
7480;BME280;3781;42.272;22.658;2023-06-10T08:44:35;94066.41;;;24.59;81.72
7480;BME280;3781;42.272;22.658;2023-06-10T08:47:08;94103.00;;;25.03;78.81
7480;BME280;3781;42.272;22.658;2023-06-10T08:49:43;94149.59;;;25.74;74.49
7480;BME280;3781;42.272;22.658;2023-06-10T08:52:13;94154.59;;;25.98;71.56
7480;BME280;3781;42.272;22.658;2023-06-10T08:54:42;94162.97;;;26.68;70.51
7480;BME280;3781;42.272;22.658;2023-06-10T08:57:10;94137.88;;;27.41;66.79
7480;BME280;3781;42.272;22.658;2023-06-10T08:59:37;94104.38;;;28.25;65.76
7480;BME280;3781;42.272;22.658;2023-06-10T09:02:06;94157.38;;;29.53;60.48
7480;BME280;3781;42.272;22.658;2023-06-10T09:04:34;94153.69;;;29.64;53.77
7480;BME280;3781;42.272;22.658;2023-06-10T09:07:04;94166.25;;;30.66;51.74
7480;BME280;3781;42.272;22.658;2023-06-10T09:09:31;94147.41;;;31.21;51.64
7480;BME280;3781;42.272;22.658;2023-06-10T09:11:59;94148.25;;;31.96;46.29
7480;BME280;3781;42.272;22.658;2023-06-10T09:14:30;94159.06;;;31.76;51.69
7480;BME280;3781;42.272;22.658;2023-06-10T09:16:57;94136.09;;;31.40;50.07
7480;BME280;3781;42.272;22.658;2023-06-10T09:19:25;94136.97;;;31.89;48.50
7480;BME280;3781;42.272;22.658;2023-06-10T09:21:53;94142.41;;;31.79;48.30
7480;BME280;3781;42.272;22.658;2023-06-10T09:24:22;94159.41;;;31.59;46.65
7480;BME280;3781;42.272;22.658;2023-06-10T09:26:49;94150.25;;;31.60;47.75
7480;BME280;3781;42.272;22.658;2023-06-10T09:29:18;94064.19;;;31.32;49.44
7480;BME280;3781;42.272;22.658;2023-06-10T09:31:45;94156.47;;;31.56;49.10
7480;BME280;3781;42.272;22.658;2023-06-10T09:34:14;94155.59;;;32.24;47.36
7480;BME280;3781;42.272;22.658;2023-06-10T09:36:42;94145.19;;;31.54;50.66
7480;BME280;3781;42.272;22.658;2023-06-10T09:39:14;94036.31;;;32.54;45.47
7480;BME280;3781;42.272;22.658;2023-06-10T09:41:44;94098.59;;;33.47;42.02
7480;BME280;3781;42.272;22.658;2023-06-10T09:44:12;94138.66;;;33.96;45.41
7480;BME280;3781;42.272;22.658;2023-06-10T09:46:40;94162.00;;;34.24;42.63
7480;BME280;3781;42.272;22.658;2023-06-10T09:49:08;94136.44;;;32.36;43.28
7480;BME280;3781;42.272;22.658;2023-06-10T09:51:34;94141.47;;;31.45;46.60
7480;BME280;3781;42.272;22.658;2023-06-10T09:54:02;94140.16;;;30.11;47.83
7480;BME280;3781;42.272;22.658;2023-06-10T09:56:33;94144.94;;;29.32;51.87
7480;BME280;3781;42.272;22.658;2023-06-10T09:59:03;94104.72;;;29.12;52.95
7480;BME280;3781;42.272;22.658;2023-06-10T10:01:32;94147.81;;;28.47;54.74
7480;BME280;3781;42.272;22.658;2023-06-10T10:03:59;94119.53;;;28.19;55.66
7480;BME280;3781;42.272;22.658;2023-06-10T10:06:27;94138.72;;;27.03;58.37
7480;BME280;3781;42.272;22.658;2023-06-10T10:08:55;94100.44;;;25.93;64.41
7480;BME280;3781;42.272;22.658;2023-06-10T10:11:23;94105.78;;;24.62;73.15
7480;BME280;3781;42.272;22.658;2023-06-10T10:13:52;94092.97;;;23.53;93.98
7480;BME280;3781;42.272;22.658;2023-06-10T10:16:21;94005.09;;;21.26;100.00
7480;BME280;3781;42.272;22.658;2023-06-10T10:18:56;94056.78;;;21.15;100.00
7480;BME280;3781;42.272;22.658;2023-06-10T10:21:28;94146.28;;;21.67;100.00
7480;BME280;3781;42.272;22.658;2023-06-10T10:24:01;94077.94;;;21.09;100.00
7480;BME280;3781;42.272;22.658;2023-06-10T10:26:31;94141.34;;;21.46;100.00
7480;BME280;3781;42.272;22.658;2023-06-10T10:29:07;93926.03;;;20.17;100.00
7480;BME280;3781;42.272;22.658;2023-06-10T10:31:39;94025.19;;;20.89;100.00
7480;BME280;3781;42.272;22.658;2023-06-10T10:34:12;94150.53;;;22.06;100.00
7480;BME280;3781;42.272;22.658;2023-06-10T10:36:40;94102.72;;;21.83;100.00
7480;BME280;3781;42.272;22.658;2023-06-10T10:39:08;94098.34;;;21.95;100.00
7480;BME280;3781;42.272;22.658;2023-06-10T10:41:36;94148.75;;;22.74;100.00
7480;BME280;3781;42.272;22.658;2023-06-10T10:44:05;93995.97;;;21.53;100.00
7480;BME280;3781;42.272;22.658;2023-06-10T10:46:43;94157.50;;;22.50;100.00
7480;BME280;3781;42.272;22.658;2023-06-10T10:49:12;94095.44;;;21.72;100.00
7480;BME280;3781;42.272;22.658;2023-06-10T10:51:56;94151.84;;;22.46;100.00
7480;BME280;3781;42.272;22.658;2023-06-10T10:54:29;94131.56;;;22.83;100.00
7480;BME280;3781;42.272;22.658;2023-06-10T10:57:11;94123.50;;;23.08;90.90
7480;BME280;3781;42.272;22.658;2023-06-10T10:59:57;94171.97;;;24.11;89.43
7480;BME280;3781;42.272;22.658;2023-06-10T11:02:40;94151.00;;;23.61;73.39
7480;BME280;3781;42.272;22.658;2023-06-10T11:05:09;94111.53;;;23.53;72.73
7480;BME280;3781;42.272;22.658;2023-06-10T11:07:37;94144.50;;;24.17;71.43
7480;BME280;3781;42.272;22.658;2023-06-10T11:10:06;94056.75;;;23.88;70.76
7480;BME280;3781;42.272;22.658;2023-06-10T11:12:50;94120.66;;;24.63;65.04
7480;BME280;3781;42.272;22.658;2023-06-10T11:15:22;94111.56;;;24.36;65.53
7480;BME280;3781;42.272;22.658;2023-06-10T11:18:10;94145.91;;;25.23;65.52
7480;BME280;3781;42.272;22.658;2023-06-10T11:20:54;94143.34;;;25.28;69.61
7480;BME280;3781;42.272;22.658;2023-06-10T11:23:26;94122.81;;;25.12;63.30
7480;BME280;3781;42.272;22.658;2023-06-10T11:26:14;94125.00;;;25.27;66.52
7480;BME280;3781;42.272;22.658;2023-06-10T11:28:43;94099.28;;;25.04;68.94
7480;BME280;3781;42.272;22.658;2023-06-10T11:31:28;94058.16;;;24.95;68.14
7480;BME280;3781;42.272;22.658;2023-06-10T11:33:58;94111.00;;;25.31;60.71
7480;BME280;3781;42.272;22.658;2023-06-10T11:36:26;94124.50;;;25.30;59.92
7480;BME280;3781;42.272;22.658;2023-06-10T11:38:55;93988.75;;;24.06;60.48
7480;BME280;3781;42.272;22.658;2023-06-10T11:41:23;94111.78;;;24.92;65.21
7480;BME280;3781;42.272;22.658;2023-06-10T11:43:51;94067.19;;;24.71;64.00
7480;BME280;3781;42.272;22.658;2023-06-10T11:46:18;94075.38;;;25.32;60.25
7480;BME280;3781;42.272;22.658;2023-06-10T11:48:48;94061.44;;;25.54;60.17
7480;BME280;3781;42.272;22.658;2023-06-10T11:51:17;93996.41;;;25.16;61.39
7480;BME280;3781;42.272;22.658;2023-06-10T11:53:44;94003.13;;;25.80;58.90
7480;BME280;3781;42.272;22.658;2023-06-10T11:56:11;94068.41;;;26.87;55.39
7480;BME280;3781;42.272;22.658;2023-06-10T11:58:41;93996.31;;;26.77;51.44
7480;BME280;3781;42.272;22.658;2023-06-10T12:01:19;93997.88;;;26.73;51.62
7480;BME280;3781;42.272;22.658;2023-06-10T12:03:47;93985.50;;;26.67;52.62
7480;BME280;3781;42.272;22.658;2023-06-10T12:06:14;94050.31;;;27.86;50.75
7480;BME280;3781;42.272;22.658;2023-06-10T12:08:43;94024.41;;;28.50;47.75
7480;BME280;3781;42.272;22.658;2023-06-10T12:11:10;94000.22;;;29.29;44.19
7480;BME280;3781;42.272;22.658;2023-06-10T12:13:37;94078.59;;;30.41;44.03
7480;BME280;3781;42.272;22.658;2023-06-10T12:16:12;93944.91;;;30.10;42.23
7480;BME280;3781;42.272;22.658;2023-06-10T12:18:39;94099.81;;;32.06;38.55
7480;BME280;3781;42.272;22.658;2023-06-10T12:21:15;94046.88;;;32.74;36.05
7480;BME280;3781;42.272;22.658;2023-06-10T12:24:02;94056.69;;;31.82;36.38
7480;BME280;3781;42.272;22.658;2023-06-10T12:26:40;93949.69;;;33.65;40.58
7480;BME280;3781;42.272;22.658;2023-06-10T12:29:19;94072.84;;;35.44;32.11
7480;BME280;3781;42.272;22.658;2023-06-10T12:31:55;93949.41;;;35.31;31.09
7480;BME280;3781;42.272;22.658;2023-06-10T12:34:36;94066.91;;;35.97;33.29
7480;BME280;3781;42.272;22.658;2023-06-10T12:37:04;94057.50;;;34.53;34.57
7480;BME280;3781;42.272;22.658;2023-06-10T12:39:33;94069.31;;;35.30;31.74
7480;BME280;3781;42.272;22.658;2023-06-10T12:42:01;94020.00;;;34.84;31.38
7480;BME280;3781;42.272;22.658;2023-06-10T12:44:32;93981.63;;;33.11;33.21
7480;BME280;3781;42.272;22.658;2023-06-10T12:46:58;93948.56;;;31.67;36.59
7480;BME280;3781;42.272;22.658;2023-06-10T12:49:25;93921.28;;;30.27;38.46
7480;BME280;3781;42.272;22.658;2023-06-10T12:51:53;93970.38;;;28.90;37.67
7480;BME280;3781;42.272;22.658;2023-06-10T12:54:20;94043.13;;;29.02;39.91
7480;BME280;3781;42.272;22.658;2023-06-10T12:56:48;94002.56;;;28.16;43.06
7480;BME280;3781;42.272;22.658;2023-06-10T12:59:15;94029.03;;;28.60;40.63
7480;BME280;3781;42.272;22.658;2023-06-10T13:01:43;93910.66;;;28.12;41.39
7480;BME280;3781;42.272;22.658;2023-06-10T13:04:10;94027.84;;;28.46;45.53
7480;BME280;3781;42.272;22.658;2023-06-10T13:06:37;93967.03;;;27.84;49.65
7480;BME280;3781;42.272;22.658;2023-06-10T13:09:07;94015.53;;;28.81;46.62
7480;BME280;3781;42.272;22.658;2023-06-10T13:11:34;93997.59;;;28.77;45.66
7480;BME280;3781;42.272;22.658;2023-06-10T13:14:04;94002.47;;;29.97;45.27
7480;BME280;3781;42.272;22.658;2023-06-10T13:16:31;93986.91;;;32.16;41.49
7480;BME280;3781;42.272;22.658;2023-06-10T13:18:58;94027.63;;;35.09;33.41
7480;BME280;3781;42.272;22.658;2023-06-10T13:21:26;93954.63;;;35.28;33.61
7480;BME280;3781;42.272;22.658;2023-06-10T13:23:52;94029.38;;;37.71;30.15
7480;BME280;3781;42.272;22.658;2023-06-10T13:26:19;93996.69;;;35.92;30.21
7480;BME280;3781;42.272;22.658;2023-06-10T13:28:47;93979.22;;;35.53;30.83
7480;BME280;3781;42.272;22.658;2023-06-10T13:31:15;93986.13;;;36.70;31.21
7480;BME280;3781;42.272;22.658;2023-06-10T13:33:42;93976.69;;;36.59;32.49
7480;BME280;3781;42.272;22.658;2023-06-10T13:36:10;93961.13;;;35.13;31.30
7480;BME280;3781;42.272;22.658;2023-06-10T13:38:37;94041.44;;;37.09;32.20
7480;BME280;3781;42.272;22.658;2023-06-10T13:41:04;94024.44;;;37.73;32.23
7480;BME280;3781;42.272;22.658;2023-06-10T13:43:33;93985.34;;;37.00;30.62